sensor_id;sensor_type;location;lat;lon;timestamp;P1;durP1;ratioP1;P2;durP2;ratioP2
48789;SDS011;41718;51.980;5.734;2024-03-22T00:04:59;47.35;;;22.80;;
48789;SDS011;41718;51.980;5.734;2024-03-22T00:10:00;46.17;;;22.63;;
48789;SDS011;41718;51.980;5.734;2024-03-22T00:15:02;47.92;;;20.13;;
48789;SDS011;41718;51.980;5.734;2024-03-22T00:20:04;40.55;;;19.33;;
48789;SDS011;41718;51.980;5.734;2024-03-22T00:25:06;43.97;;;19.52;;
48789;SDS011;41718;51.980;5.734;2024-03-22T00:30:08;41.10;;;20.27;;
48789;SDS011;41718;51.980;5.734;2024-03-22T00:35:09;48.50;;;24.90;;
48789;SDS011;41718;51.980;5.734;2024-03-22T00:40:11;46.50;;;20.50;;
48789;SDS011;41718;51.980;5.734;2024-03-22T00:45:13;47.35;;;21.50;;
48789;SDS011;41718;51.980;5.734;2024-03-22T00:50:14;39.55;;;20.20;;
48789;SDS011;41718;51.980;5.734;2024-03-22T00:55:15;54.03;;;21.30;;
48789;SDS011;41718;51.980;5.734;2024-03-22T01:00:16;46.03;;;20.83;;
48789;SDS011;41718;51.980;5.734;2024-03-22T01:05:18;46.20;;;23.10;;
48789;SDS011;41718;51.980;5.734;2024-03-22T01:10:19;41.45;;;20.65;;
48789;SDS011;41718;51.980;5.734;2024-03-22T01:15:20;50.67;;;24.20;;
48789;SDS011;41718;51.980;5.734;2024-03-22T01:20:21;49.72;;;22.48;;
48789;SDS011;41718;51.980;5.734;2024-03-22T01:25:22;52.10;;;24.75;;
48789;SDS011;41718;51.980;5.734;2024-03-22T01:30:23;51.83;;;23.67;;
48789;SDS011;41718;51.980;5.734;2024-03-22T01:35:28;49.38;;;22.98;;
48789;SDS011;41718;51.980;5.734;2024-03-22T01:40:29;61.63;;;26.63;;
48789;SDS011;41718;51.980;5.734;2024-03-22T01:45:32;49.38;;;21.98;;
48789;SDS011;41718;51.980;5.734;2024-03-22T01:50:34;47.05;;;22.55;;
48789;SDS011;41718;51.980;5.734;2024-03-22T01:55:38;53.25;;;22.40;;
48789;SDS011;41718;51.980;5.734;2024-03-22T02:00:40;48.83;;;22.67;;
48789;SDS011;41718;51.980;5.734;2024-03-22T02:05:41;49.42;;;21.88;;
48789;SDS011;41718;51.980;5.734;2024-03-22T02:10:42;46.35;;;22.60;;
48789;SDS011;41718;51.980;5.734;2024-03-22T02:15:43;41.72;;;21.05;;
48789;SDS011;41718;51.980;5.734;2024-03-22T02:20:44;48.60;;;21.27;;
48789;SDS011;41718;51.980;5.734;2024-03-22T02:25:45;50.25;;;23.13;;
48789;SDS011;41718;51.980;5.734;2024-03-22T02:30:46;49.17;;;20.95;;
48789;SDS011;41718;51.980;5.734;2024-03-22T02:35:47;49.58;;;22.55;;
48789;SDS011;41718;51.980;5.734;2024-03-22T02:40:50;47.80;;;22.10;;
48789;SDS011;41718;51.980;5.734;2024-03-22T02:45:52;37.15;;;19.77;;
48789;SDS011;41718;51.980;5.734;2024-03-22T02:50:55;46.83;;;22.40;;
48789;SDS011;41718;51.980;5.734;2024-03-22T02:55:59;42.70;;;21.13;;
48789;SDS011;41718;51.980;5.734;2024-03-22T03:01:01;43.55;;;21.13;;
48789;SDS011;41718;51.980;5.734;2024-03-22T03:06:03;41.97;;;19.85;;
48789;SDS011;41718;51.980;5.734;2024-03-22T03:11:05;40.28;;;18.88;;
48789;SDS011;41718;51.980;5.734;2024-03-22T03:16:06;52.70;;;20.70;;
48789;SDS011;41718;51.980;5.734;2024-03-22T03:21:07;39.17;;;19.10;;
48789;SDS011;41718;51.980;5.734;2024-03-22T03:26:08;36.97;;;18.92;;
48789;SDS011;41718;51.980;5.734;2024-03-22T03:31:09;39.40;;;19.80;;
48789;SDS011;41718;51.980;5.734;2024-03-22T03:36:10;42.53;;;20.58;;
48789;SDS011;41718;51.980;5.734;2024-03-22T03:41:11;39.67;;;19.83;;
48789;SDS011;41718;51.980;5.734;2024-03-22T03:46:12;41.53;;;20.45;;
48789;SDS011;41718;51.980;5.734;2024-03-22T03:51:13;41.90;;;19.45;;
48789;SDS011;41718;51.980;5.734;2024-03-22T03:56:14;37.33;;;20.02;;
48789;SDS011;41718;51.980;5.734;2024-03-22T04:01:15;33.88;;;18.20;;
48789;SDS011;41718;51.980;5.734;2024-03-22T04:06:18;28.35;;;14.52;;
48789;SDS011;41718;51.980;5.734;2024-03-22T04:11:19;30.52;;;16.48;;
48789;SDS011;41718;51.980;5.734;2024-03-22T04:16:20;29.85;;;14.90;;
48789;SDS011;41718;51.980;5.734;2024-03-22T04:21:21;31.42;;;15.88;;
48789;SDS011;41718;51.980;5.734;2024-03-22T04:26:22;33.10;;;14.63;;
48789;SDS011;41718;51.980;5.734;2024-03-22T04:31:23;33.20;;;18.20;;
48789;SDS011;41718;51.980;5.734;2024-03-22T04:36:24;25.70;;;13.10;;
48789;SDS011;41718;51.980;5.734;2024-03-22T04:41:25;34.40;;;16.75;;
48789;SDS011;41718;51.980;5.734;2024-03-22T04:46:26;37.80;;;19.10;;
48789;SDS011;41718;51.980;5.734;2024-03-22T04:51:27;35.00;;;16.42;;
48789;SDS011;41718;51.980;5.734;2024-03-22T04:56:28;19.35;;;9.00;;
48789;SDS011;41718;51.980;5.734;2024-03-22T05:01:29;33.22;;;17.05;;
48789;SDS011;41718;51.980;5.734;2024-03-22T05:06:30;36.08;;;17.63;;
48789;SDS011;41718;51.980;5.734;2024-03-22T05:11:31;33.92;;;16.17;;
48789;SDS011;41718;51.980;5.734;2024-03-22T05:16:32;33.17;;;17.08;;
48789;SDS011;41718;51.980;5.734;2024-03-22T05:21:33;34.92;;;14.85;;
48789;SDS011;41718;51.980;5.734;2024-03-22T05:26:34;28.50;;;15.13;;
48789;SDS011;41718;51.980;5.734;2024-03-22T05:31:50;32.00;;;15.63;;
48789;SDS011;41718;51.980;5.734;2024-03-22T05:36:54;30.67;;;14.18;;
48789;SDS011;41718;51.980;5.734;2024-03-22T05:41:55;32.70;;;15.55;;
48789;SDS011;41718;51.980;5.734;2024-03-22T05:46:56;22.73;;;11.30;;
48789;SDS011;41718;51.980;5.734;2024-03-22T05:51:57;38.28;;;18.67;;
48789;SDS011;41718;51.980;5.734;2024-03-22T05:56:58;26.42;;;14.52;;
48789;SDS011;41718;51.980;5.734;2024-03-22T06:02:01;25.98;;;14.70;;
48789;SDS011;41718;51.980;5.734;2024-03-22T06:07:02;32.28;;;15.55;;
48789;SDS011;41718;51.980;5.734;2024-03-22T06:12:04;15.77;;;7.75;;
48789;SDS011;41718;51.980;5.734;2024-03-22T06:17:06;29.90;;;14.05;;
48789;SDS011;41718;51.980;5.734;2024-03-22T06:22:07;32.15;;;16.30;;
48789;SDS011;41718;51.980;5.734;2024-03-22T06:27:08;10.27;;;5.40;;
48789;SDS011;41718;51.980;5.734;2024-03-22T06:32:09;30.45;;;13.52;;
48789;SDS011;41718;51.980;5.734;2024-03-22T06:37:10;28.95;;;13.30;;
48789;SDS011;41718;51.980;5.734;2024-03-22T06:42:11;27.63;;;14.18;;
48789;SDS011;41718;51.980;5.734;2024-03-22T06:47:12;28.58;;;13.48;;
48789;SDS011;41718;51.980;5.734;2024-03-22T06:52:13;29.88;;;13.30;;
48789;SDS011;41718;51.980;5.734;2024-03-22T06:57:15;22.67;;;12.45;;
48789;SDS011;41718;51.980;5.734;2024-03-22T07:02:16;23.98;;;11.75;;
48789;SDS011;41718;51.980;5.734;2024-03-22T07:07:18;27.85;;;13.73;;
48789;SDS011;41718;51.980;5.734;2024-03-22T07:12:19;22.38;;;11.32;;
48789;SDS011;41718;51.980;5.734;2024-03-22T07:17:20;23.30;;;13.35;;
48789;SDS011;41718;51.980;5.734;2024-03-22T07:22:24;25.27;;;13.73;;
48789;SDS011;41718;51.980;5.734;2024-03-22T07:27:25;28.75;;;16.00;;
48789;SDS011;41718;51.980;5.734;2024-03-22T07:32:29;30.85;;;12.38;;
48789;SDS011;41718;51.980;5.734;2024-03-22T07:37:31;25.77;;;12.80;;
48789;SDS011;41718;51.980;5.734;2024-03-22T07:42:32;20.77;;;9.70;;
48789;SDS011;41718;51.980;5.734;2024-03-22T07:47:33;20.25;;;10.57;;
48789;SDS011;41718;51.980;5.734;2024-03-22T07:52:34;19.83;;;11.77;;
48789;SDS011;41718;51.980;5.734;2024-03-22T07:57:35;24.40;;;13.25;;
48789;SDS011;41718;51.980;5.734;2024-03-22T08:02:36;18.05;;;7.60;;
48789;SDS011;41718;51.980;5.734;2024-03-22T08:07:37;23.70;;;11.05;;
48789;SDS011;41718;51.980;5.734;2024-03-22T08:12:39;29.02;;;13.77;;
48789;SDS011;41718;51.980;5.734;2024-03-22T08:17:40;27.73;;;13.88;;
48789;SDS011;41718;51.980;5.734;2024-03-22T08:22:41;26.48;;;12.65;;
48789;SDS011;41718;51.980;5.734;2024-03-22T08:27:42;31.73;;;13.32;;
48789;SDS011;41718;51.980;5.734;2024-03-22T08:32:46;30.27;;;14.98;;
48789;SDS011;41718;51.980;5.734;2024-03-22T08:37:47;25.83;;;12.75;;
48789;SDS011;41718;51.980;5.734;2024-03-22T08:42:48;35.83;;;12.25;;
48789;SDS011;41718;51.980;5.734;2024-03-22T08:47:49;26.42;;;15.30;;
48789;SDS011;41718;51.980;5.734;2024-03-22T08:52:50;29.08;;;13.48;;
48789;SDS011;41718;51.980;5.734;2024-03-22T08:57:51;31.52;;;16.15;;
48789;SDS011;41718;51.980;5.734;2024-03-22T09:02:52;23.92;;;11.55;;
48789;SDS011;41718;51.980;5.734;2024-03-22T09:07:54;33.70;;;14.10;;
48789;SDS011;41718;51.980;5.734;2024-03-22T09:12:57;32.97;;;18.08;;
48789;SDS011;41718;51.980;5.734;2024-03-22T09:17:58;29.98;;;15.98;;
48789;SDS011;41718;51.980;5.734;2024-03-22T09:22:59;23.63;;;7.57;;
48789;SDS011;41718;51.980;5.734;2024-03-22T09:28:00;35.20;;;16.30;;
48789;SDS011;41718;51.980;5.734;2024-03-22T09:33:01;30.00;;;13.63;;
48789;SDS011;41718;51.980;5.734;2024-03-22T09:38:03;14.93;;;7.70;;
48789;SDS011;41718;51.980;5.734;2024-03-22T09:43:05;35.47;;;15.55;;
48789;SDS011;41718;51.980;5.734;2024-03-22T09:48:07;31.48;;;15.68;;
48789;SDS011;41718;51.980;5.734;2024-03-22T09:53:09;32.00;;;17.98;;
48789;SDS011;41718;51.980;5.734;2024-03-22T09:58:11;39.92;;;17.73;;
48789;SDS011;41718;51.980;5.734;2024-03-22T10:03:12;28.25;;;14.45;;
48789;SDS011;41718;51.980;5.734;2024-03-22T10:08:13;38.58;;;18.27;;
48789;SDS011;41718;51.980;5.734;2024-03-22T10:13:14;30.58;;;15.07;;
48789;SDS011;41718;51.980;5.734;2024-03-22T10:18:15;25.98;;;16.75;;
48789;SDS011;41718;51.980;5.734;2024-03-22T10:23:16;28.45;;;15.75;;
48789;SDS011;41718;51.980;5.734;2024-03-22T10:28:17;23.38;;;12.52;;
48789;SDS011;41718;51.980;5.734;2024-03-22T10:33:18;28.35;;;14.65;;
48789;SDS011;41718;51.980;5.734;2024-03-22T10:38:22;24.48;;;14.15;;
48789;SDS011;41718;51.980;5.734;2024-03-22T10:43:23;21.95;;;11.57;;
48789;SDS011;41718;51.980;5.734;2024-03-22T10:48:24;23.50;;;13.15;;
48789;SDS011;41718;51.980;5.734;2024-03-22T10:53:30;24.45;;;13.23;;
48789;SDS011;41718;51.980;5.734;2024-03-22T10:58:33;24.65;;;11.50;;
48789;SDS011;41718;51.980;5.734;2024-03-22T11:03:35;14.15;;;7.78;;
48789;SDS011;41718;51.980;5.734;2024-03-22T11:08:37;15.15;;;7.97;;
48789;SDS011;41718;51.980;5.734;2024-03-22T11:13:38;17.55;;;10.63;;
48789;SDS011;41718;51.980;5.734;2024-03-22T11:18:40;14.20;;;8.57;;
48789;SDS011;41718;51.980;5.734;2024-03-22T11:23:44;16.48;;;8.35;;
48789;SDS011;41718;51.980;5.734;2024-03-22T11:28:46;18.70;;;9.70;;
48789;SDS011;41718;51.980;5.734;2024-03-22T11:33:47;14.32;;;7.53;;
48789;SDS011;41718;51.980;5.734;2024-03-22T11:38:49;10.77;;;6.10;;
48789;SDS011;41718;51.980;5.734;2024-03-22T11:43:54;10.70;;;6.60;;
48789;SDS011;41718;51.980;5.734;2024-03-22T11:49:01;11.98;;;7.07;;
48789;SDS011;41718;51.980;5.734;2024-03-22T11:54:03;11.00;;;6.53;;
48789;SDS011;41718;51.980;5.734;2024-03-22T11:59:04;9.48;;;6.35;;
48789;SDS011;41718;51.980;5.734;2024-03-22T12:04:05;6.50;;;5.03;;
48789;SDS011;41718;51.980;5.734;2024-03-22T12:09:08;11.13;;;5.88;;
48789;SDS011;41718;51.980;5.734;2024-03-22T12:14:11;5.18;;;4.07;;
48789;SDS011;41718;51.980;5.734;2024-03-22T12:19:12;7.50;;;5.30;;
48789;SDS011;41718;51.980;5.734;2024-03-22T12:24:13;8.93;;;5.10;;
48789;SDS011;41718;51.980;5.734;2024-03-22T12:29:17;8.13;;;3.97;;
48789;SDS011;41718;51.980;5.734;2024-03-22T12:34:18;6.28;;;4.32;;
48789;SDS011;41718;51.980;5.734;2024-03-22T12:39:19;2.70;;;2.38;;
48789;SDS011;41718;51.980;5.734;2024-03-22T12:44:20;6.82;;;4.22;;
48789;SDS011;41718;51.980;5.734;2024-03-22T12:49:21;5.00;;;3.97;;
48789;SDS011;41718;51.980;5.734;2024-03-22T12:54:22;5.95;;;4.47;;
48789;SDS011;41718;51.980;5.734;2024-03-22T12:59:23;4.55;;;3.70;;
48789;SDS011;41718;51.980;5.734;2024-03-22T13:04:24;6.50;;;4.35;;
48789;SDS011;41718;51.980;5.734;2024-03-22T13:09:25;4.45;;;3.40;;
48789;SDS011;41718;51.980;5.734;2024-03-22T13:14:26;4.05;;;2.85;;
48789;SDS011;41718;51.980;5.734;2024-03-22T13:19:28;4.30;;;3.17;;
48789;SDS011;41718;51.980;5.734;2024-03-22T13:24:29;4.22;;;3.22;;
48789;SDS011;41718;51.980;5.734;2024-03-22T13:29:30;6.43;;;3.28;;
48789;SDS011;41718;51.980;5.734;2024-03-22T13:34:34;6.30;;;3.53;;
48789;SDS011;41718;51.980;5.734;2024-03-22T13:39:35;4.50;;;3.08;;
48789;SDS011;41718;51.980;5.734;2024-03-22T13:44:36;7.47;;;3.83;;
48789;SDS011;41718;51.980;5.734;2024-03-22T13:49:51;5.18;;;2.83;;
48789;SDS011;41718;51.980;5.734;2024-03-22T13:55:09;6.28;;;4.40;;
48789;SDS011;41718;51.980;5.734;2024-03-22T14:00:22;4.70;;;3.22;;
48789;SDS011;41718;51.980;5.734;2024-03-22T14:05:25;7.00;;;3.45;;
48789;SDS011;41718;51.980;5.734;2024-03-22T14:10:27;5.55;;;3.00;;
48789;SDS011;41718;51.980;5.734;2024-03-22T15:07:47;7.17;;;3.83;;
48789;SDS011;41718;51.980;5.734;2024-03-22T15:12:52;8.25;;;3.63;;
48789;SDS011;41718;51.980;5.734;2024-03-22T15:17:53;8.73;;;5.47;;
48789;SDS011;41718;51.980;5.734;2024-03-22T15:22:55;5.43;;;3.53;;
48789;SDS011;41718;51.980;5.734;2024-03-22T15:28:03;10.90;;;5.03;;
48789;SDS011;41718;51.980;5.734;2024-03-22T15:33:04;8.43;;;4.10;;
48789;SDS011;41718;51.980;5.734;2024-03-22T15:38:06;13.55;;;5.43;;
48789;SDS011;41718;51.980;5.734;2024-03-22T15:43:07;12.70;;;4.90;;
48789;SDS011;41718;51.980;5.734;2024-03-22T15:48:12;9.05;;;5.00;;
48789;SDS011;41718;51.980;5.734;2024-03-22T15:53:19;9.63;;;6.80;;
48789;SDS011;41718;51.980;5.734;2024-03-22T15:58:22;12.30;;;5.28;;
48789;SDS011;41718;51.980;5.734;2024-03-22T16:08:34;10.90;;;6.57;;
48789;SDS011;41718;51.980;5.734;2024-03-22T16:13:36;10.90;;;7.10;;
48789;SDS011;41718;51.980;5.734;2024-03-22T16:18:38;11.15;;;6.20;;
48789;SDS011;41718;51.980;5.734;2024-03-22T16:23:40;8.43;;;5.63;;
48789;SDS011;41718;51.980;5.734;2024-03-22T16:28:44;7.32;;;5.35;;
48789;SDS011;41718;51.980;5.734;2024-03-22T16:49:16;11.50;;;4.22;;
48789;SDS011;41718;51.980;5.734;2024-03-22T17:14:54;17.17;;;4.32;;
48789;SDS011;41718;51.980;5.734;2024-03-22T17:32:29;9.15;;;4.05;;
48789;SDS011;41718;51.980;5.734;2024-03-22T17:38:13;14.88;;;5.03;;
48789;SDS011;41718;51.980;5.734;2024-03-22T17:43:46;14.20;;;3.72;;
48789;SDS011;41718;51.980;5.734;2024-03-22T17:49:06;16.20;;;4.78;;
48789;SDS011;41718;51.980;5.734;2024-03-22T17:54:22;10.95;;;4.72;;
48789;SDS011;41718;51.980;5.734;2024-03-22T17:59:37;8.70;;;4.15;;
48789;SDS011;41718;51.980;5.734;2024-03-22T18:04:53;14.63;;;4.57;;
48789;SDS011;41718;51.980;5.734;2024-03-22T18:10:02;13.93;;;3.90;;
48789;SDS011;41718;51.980;5.734;2024-03-22T18:15:15;25.05;;;8.85;;
48789;SDS011;41718;51.980;5.734;2024-03-22T18:20:41;13.27;;;5.15;;
48789;SDS011;41718;51.980;5.734;2024-03-22T18:25:49;13.85;;;5.05;;
48789;SDS011;41718;51.980;5.734;2024-03-22T18:31:42;12.68;;;6.38;;
48789;SDS011;41718;51.980;5.734;2024-03-22T18:36:46;15.65;;;7.22;;
48789;SDS011;41718;51.980;5.734;2024-03-22T18:42:23;15.05;;;4.70;;
48789;SDS011;41718;51.980;5.734;2024-03-22T18:47:29;12.02;;;4.53;;
48789;SDS011;41718;51.980;5.734;2024-03-22T18:52:58;16.35;;;4.85;;
48789;SDS011;41718;51.980;5.734;2024-03-22T18:58:08;13.88;;;7.32;;
48789;SDS011;41718;51.980;5.734;2024-03-22T19:03:47;16.02;;;7.43;;
48789;SDS011;41718;51.980;5.734;2024-03-22T19:08:53;17.35;;;5.20;;
48789;SDS011;41718;51.980;5.734;2024-03-22T19:14:26;14.70;;;5.68;;
48789;SDS011;41718;51.980;5.734;2024-03-22T19:20:00;21.92;;;7.35;;
48789;SDS011;41718;51.980;5.734;2024-03-22T19:25:17;16.35;;;4.90;;
48789;SDS011;41718;51.980;5.734;2024-03-22T19:30:32;14.02;;;6.13;;
48789;SDS011;41718;51.980;5.734;2024-03-22T19:48:08;16.15;;;6.82;;
48789;SDS011;41718;51.980;5.734;2024-03-22T19:53:25;15.75;;;7.25;;
48789;SDS011;41718;51.980;5.734;2024-03-22T19:58:38;12.38;;;6.03;;
48789;SDS011;41718;51.980;5.734;2024-03-22T20:04:01;9.27;;;5.18;;
48789;SDS011;41718;51.980;5.734;2024-03-22T20:09:13;14.55;;;8.00;;
48789;SDS011;41718;51.980;5.734;2024-03-22T20:14:30;13.98;;;6.30;;
48789;SDS011;41718;51.980;5.734;2024-03-22T20:19:42;12.32;;;7.47;;
48789;SDS011;41718;51.980;5.734;2024-03-22T20:25:38;16.27;;;8.45;;
48789;SDS011;41718;51.980;5.734;2024-03-22T20:31:06;13.55;;;7.85;;
48789;SDS011;41718;51.980;5.734;2024-03-22T20:36:40;18.55;;;6.18;;
